createdAt,value
2019-02-15T00:00:05.993Z,51.84
2019-02-15T00:02:38.932Z,51.86
2019-02-15T00:05:10.141Z,51.93
2019-02-15T00:07:41.405Z,51.99
2019-02-15T00:10:12.609Z,52.05
2019-02-15T00:12:43.806Z,52.10
2019-02-15T00:15:15.055Z,52.13
2019-02-15T00:18:11.221Z,52.17
2019-02-15T00:21:10.742Z,52.21
2019-02-15T00:23:42.382Z,52.27
2019-02-15T00:26:13.617Z,52.28
2019-02-15T00:28:44.841Z,52.31
2019-02-15T00:31:19.019Z,52.37
2019-02-15T00:33:50.213Z,52.42
2019-02-15T00:36:21.405Z,52.45
2019-02-15T00:38:52.596Z,52.52
2019-02-15T00:41:23.902Z,52.58
2019-02-15T00:43:55.088Z,52.64
2019-02-15T00:46:57.427Z,52.71
2019-02-15T00:49:43.711Z,52.74
2019-02-15T00:52:23.811Z,52.80
2019-02-15T00:55:17.351Z,52.83
2019-02-15T00:58:06.141Z,52.87
2019-02-15T01:01:08.514Z,52.91
2019-02-15T01:04:00.433Z,52.93
2019-02-15T01:06:59.689Z,52.97
2019-02-15T01:09:47.865Z,52.99
2019-02-15T01:12:25.183Z,53.04
2019-02-15T01:14:56.501Z,53.08
2019-02-15T01:17:27.870Z,53.09
2019-02-15T01:19:59.061Z,53.15
2019-02-15T01:22:30.262Z,53.19
2019-02-15T01:25:01.615Z,53.26
2019-02-15T01:27:43.622Z,53.29
2019-02-15T01:30:30.656Z,53.34
2019-02-15T01:33:36.050Z,53.37
2019-02-15T01:36:29.194Z,53.44
2019-02-15T01:39:34.767Z,53.51
2019-02-15T01:42:20.796Z,53.55
2019-02-15T01:45:10.938Z,53.65
2019-02-15T01:47:45.720Z,53.69
2019-02-15T01:50:16.949Z,53.77
2019-02-15T01:52:48.230Z,53.81
2019-02-15T01:55:19.490Z,53.87
2019-02-15T01:57:50.694Z,53.92
2019-02-15T02:00:24.001Z,53.98
2019-02-15T02:02:55.298Z,54.05
2019-02-15T02:05:26.594Z,54.10
2019-02-15T02:07:57.867Z,54.16
2019-02-15T02:10:29.078Z,54.20
2019-02-15T02:13:01.506Z,54.25
2019-02-15T02:15:32.746Z,54.26
2019-02-15T02:18:03.950Z,54.29
2019-02-15T02:20:35.164Z,54.32
2019-02-15T02:23:06.353Z,54.34
2019-02-15T02:25:37.532Z,54.35
2019-02-15T02:28:08.792Z,54.41
2019-02-15T02:30:40.321Z,54.44
2019-02-15T02:33:12.987Z,54.46
2019-02-15T02:35:44.643Z,54.50
2019-02-15T02:38:15.940Z,54.50
2019-02-15T02:40:47.122Z,54.51
2019-02-15T02:43:18.467Z,54.54
2019-02-15T02:45:49.758Z,54.56
2019-02-15T02:48:20.937Z,54.54
2019-02-15T02:50:52.175Z,54.57
2019-02-15T02:53:24.575Z,54.58
2019-02-15T02:55:55.768Z,54.60
2019-02-15T02:58:28.736Z,54.63
2019-02-15T03:01:00.026Z,54.64
2019-02-15T03:03:31.521Z,54.69
2019-02-15T03:06:02.701Z,54.68
2019-02-15T03:08:33.907Z,54.74
2019-02-15T03:11:05.081Z,54.79
2019-02-15T03:13:36.270Z,55.01
2019-02-15T03:16:07.441Z,55.01
2019-02-15T03:18:38.694Z,54.88
2019-02-15T03:21:09.876Z,54.94
2019-02-15T03:23:41.113Z,54.95
2019-02-15T03:26:12.357Z,54.99
2019-02-15T03:28:43.827Z,55.02
2019-02-15T03:31:15.126Z,55.05
2019-02-15T03:33:46.374Z,55.08
2019-02-15T03:36:27.306Z,55.15
2019-02-15T03:39:04.326Z,55.20
2019-02-15T03:41:35.893Z,55.19
2019-02-15T03:44:07.067Z,55.23
2019-02-15T03:46:38.239Z,55.20
2019-02-15T03:49:09.429Z,55.24
2019-02-15T03:51:40.625Z,55.28
2019-02-15T03:54:11.946Z,55.34
2019-02-15T03:56:50.118Z,55.39
2019-02-15T03:59:21.429Z,55.50
2019-02-15T04:01:52.599Z,55.50
2019-02-15T04:04:23.842Z,55.44
2019-02-15T04:06:55.121Z,55.44
2019-02-15T04:09:26.635Z,55.53
2019-02-15T04:11:57.981Z,55.54
2019-02-15T04:14:32.851Z,55.55
2019-02-15T04:17:03.217Z,55.55
2019-02-15T04:19:34.396Z,55.55
2019-02-15T04:22:05.592Z,55.60
2019-02-15T04:24:36.796Z,55.63
2019-02-15T04:27:07.909Z,55.68
2019-02-15T04:29:39.179Z,55.69
2019-02-15T04:32:10.356Z,55.56
2019-02-15T04:34:41.557Z,55.56
2019-02-15T04:37:12.786Z,55.74
2019-02-15T04:39:45.156Z,55.75
2019-02-15T04:42:16.345Z,55.77
2019-02-15T04:44:48.619Z,55.79
2019-02-15T04:47:19.863Z,55.82
2019-02-15T04:49:52.173Z,55.83
2019-02-15T04:52:23.403Z,55.85
2019-02-15T04:54:54.726Z,55.88
2019-02-15T04:57:25.958Z,55.90
2019-02-15T04:59:57.165Z,55.94
2019-02-15T05:02:28.378Z,55.97
2019-02-15T05:04:59.602Z,56.00
2019-02-15T05:07:30.999Z,56.11
2019-02-15T05:10:02.293Z,56.07
2019-02-15T05:12:33.566Z,56.07
2019-02-15T05:15:05.049Z,56.08
2019-02-15T05:17:36.227Z,56.08
2019-02-15T05:20:07.658Z,56.16
2019-02-15T05:22:38.973Z,56.18
2019-02-15T05:25:10.192Z,56.13
2019-02-15T05:27:41.428Z,56.22
2019-02-15T05:30:12.608Z,56.22
2019-02-15T05:32:43.837Z,56.29
2019-02-15T05:35:15.086Z,56.35
2019-02-15T05:37:46.338Z,56.38
2019-02-15T05:40:17.564Z,56.44
2019-02-15T05:42:48.805Z,56.44
2019-02-15T05:45:20.024Z,56.49
2019-02-15T05:47:51.187Z,56.48
2019-02-15T05:50:22.452Z,56.52
2019-02-15T05:52:53.641Z,56.71
2019-02-15T05:55:24.837Z,56.57
2019-02-15T05:57:56.154Z,56.61
2019-02-15T06:00:36.812Z,56.65
2019-02-15T06:03:00.353Z,56.72
2019-02-15T06:05:31.497Z,56.75
2019-02-15T06:08:02.781Z,56.76
2019-02-15T06:10:34.104Z,56.93
2019-02-15T06:13:05.360Z,56.93
2019-02-15T06:15:36.593Z,56.78
2019-02-15T06:18:07.831Z,56.78
2019-02-15T06:20:39.041Z,56.75
2019-02-15T06:23:10.217Z,56.72
2019-02-15T06:25:41.416Z,56.76
2019-02-15T06:28:12.601Z,56.76
2019-02-15T06:30:43.957Z,56.62
2019-02-15T06:33:15.195Z,56.62
2019-02-15T06:35:46.378Z,56.70
2019-02-15T06:38:17.639Z,56.73
2019-02-15T06:40:48.872Z,56.75
2019-02-15T06:43:20.108Z,56.92
2019-02-15T06:45:51.262Z,56.92
2019-02-15T06:48:23.581Z,56.84
2019-02-15T06:50:54.776Z,56.86
2019-02-15T06:53:26.089Z,56.89
2019-02-15T06:55:57.324Z,56.93
2019-02-15T06:58:28.710Z,56.93
2019-02-15T07:01:13.937Z,57.04
2019-02-15T07:04:00.409Z,57.07
2019-02-15T07:06:32.570Z,57.10
2019-02-15T07:09:04.726Z,57.10
2019-02-15T07:11:36.128Z,57.11
2019-02-15T07:14:07.337Z,57.12
2019-02-15T07:16:38.534Z,57.12
2019-02-15T07:19:09.740Z,57.12
2019-02-15T07:21:40.998Z,57.14
2019-02-15T07:24:12.243Z,57.14
2019-02-15T07:26:43.534Z,57.12
2019-02-15T07:29:14.800Z,57.12
2019-02-15T07:31:46.098Z,57.10
2019-02-15T07:34:17.303Z,56.78
2019-02-15T07:36:48.654Z,57.07
2019-02-15T07:39:19.920Z,57.06
2019-02-15T07:41:51.171Z,57.06
2019-02-15T07:44:22.600Z,57.10
2019-02-15T07:46:53.855Z,57.10
2019-02-15T07:49:27.168Z,57.07
2019-02-15T07:51:58.058Z,57.10
2019-02-15T07:54:29.350Z,57.12
2019-02-15T07:57:00.668Z,57.29
2019-02-15T07:59:31.864Z,57.29
2019-02-15T08:02:03.098Z,57.10
2019-02-15T08:04:34.295Z,57.07
2019-02-15T08:07:05.657Z,57.03
2019-02-15T08:09:36.996Z,57.01
2019-02-15T08:12:08.180Z,56.96
2019-02-15T08:14:39.430Z,56.88
2019-02-15T08:17:10.658Z,56.83
2019-02-15T08:19:41.971Z,56.79
2019-02-15T08:22:13.373Z,56.75
2019-02-15T08:24:44.638Z,56.73
2019-02-15T08:27:15.923Z,56.68
2019-02-15T08:29:47.225Z,56.65
2019-02-15T08:32:18.467Z,56.66
2019-02-15T08:34:49.691Z,56.62
2019-02-15T08:37:20.892Z,56.60
2019-02-15T08:39:52.059Z,56.60
2019-02-15T08:42:23.319Z,56.58
2019-02-15T08:44:54.542Z,56.55
2019-02-15T08:47:25.802Z,56.55
2019-02-15T08:49:57.029Z,56.57
2019-02-15T08:52:28.338Z,56.57
2019-02-15T08:54:59.515Z,56.56
2019-02-15T08:57:30.678Z,56.53
2019-02-15T09:00:03.049Z,56.57
2019-02-15T09:02:35.445Z,56.57
2019-02-15T09:05:08.096Z,56.55
2019-02-15T09:07:39.286Z,56.54
2019-02-15T09:10:11.474Z,56.52
2019-02-15T09:12:42.748Z,56.51
2019-02-15T09:15:19.009Z,56.47
2019-02-15T09:17:53.999Z,56.45
2019-02-15T09:20:25.331Z,56.41
2019-02-15T09:22:56.609Z,56.36
2019-02-15T09:25:27.833Z,56.34
2019-02-15T09:28:18.422Z,56.29
2019-02-15T09:30:52.955Z,56.26
2019-02-15T09:33:24.153Z,56.22
2019-02-15T09:35:55.512Z,56.19
2019-02-15T09:38:26.797Z,56.15
2019-02-15T09:40:58.040Z,56.12
2019-02-15T09:43:29.786Z,56.12
2019-02-15T09:46:01.021Z,56.07
2019-02-15T09:48:32.401Z,56.02
2019-02-15T09:51:03.620Z,56.01
2019-02-15T09:53:34.867Z,55.95
2019-02-15T09:56:07.239Z,55.92
2019-02-15T09:58:38.491Z,55.87
2019-02-15T10:01:09.726Z,55.80
2019-02-15T10:03:40.961Z,55.72
2019-02-15T10:06:12.201Z,55.64
2019-02-15T10:08:43.404Z,55.56
2019-02-15T10:11:14.625Z,55.51
2019-02-15T10:13:45.795Z,55.42
2019-02-15T10:16:16.951Z,55.35
2019-02-15T10:18:48.147Z,55.29
2019-02-15T10:21:19.282Z,55.19
2019-02-15T10:23:50.585Z,55.15
2019-02-15T10:26:21.786Z,55.09
2019-02-15T10:28:53.098Z,55.00
2019-02-15T10:31:24.278Z,54.93
2019-02-15T10:33:55.490Z,54.88
2019-02-15T10:36:26.694Z,54.76
2019-02-15T10:38:57.992Z,54.63
2019-02-15T10:41:29.305Z,54.55
2019-02-15T10:44:00.506Z,54.45
2019-02-15T10:46:37.676Z,54.36
2019-02-15T10:49:04.741Z,54.28
2019-02-15T10:51:35.926Z,54.23
2019-02-15T10:54:07.120Z,54.17
2019-02-15T10:56:38.293Z,54.09
2019-02-15T10:59:11.184Z,54.04
2019-02-15T11:01:42.539Z,53.86
2019-02-15T11:04:13.846Z,53.72
2019-02-15T11:06:45.075Z,53.62
2019-02-15T11:09:16.322Z,53.51
2019-02-15T11:11:47.587Z,53.41
2019-02-15T11:14:18.813Z,53.22
2019-02-15T11:16:50.081Z,53.03
2019-02-15T11:19:21.330Z,52.95
2019-02-15T11:21:52.506Z,52.79
2019-02-15T11:24:23.722Z,52.65
2019-02-15T11:26:54.903Z,52.51
2019-02-15T11:29:26.128Z,52.33
2019-02-15T11:31:57.317Z,52.23
2019-02-15T11:34:28.552Z,52.11
2019-02-15T11:36:59.731Z,51.95
2019-02-15T11:39:30.929Z,51.76
2019-02-15T11:42:02.338Z,51.60
2019-02-15T11:44:33.506Z,51.50
2019-02-15T11:47:04.826Z,51.48
2019-02-15T11:49:36.090Z,51.52
2019-02-15T11:52:07.299Z,51.40
2019-02-15T11:54:38.540Z,51.18
2019-02-15T11:57:09.801Z,51.01
2019-02-15T11:59:41.056Z,50.82
2019-02-15T12:02:12.358Z,50.71
2019-02-15T12:04:43.541Z,50.53
2019-02-15T12:07:14.764Z,50.38
2019-02-15T12:09:45.991Z,50.23
2019-02-15T12:12:17.115Z,49.95
2019-02-15T12:14:48.353Z,49.71
2019-02-15T12:17:19.555Z,49.60
2019-02-15T12:19:51.841Z,49.14
2019-02-15T12:22:23.036Z,48.71
2019-02-15T12:24:54.214Z,48.49
2019-02-15T12:27:25.466Z,48.54
2019-02-15T12:29:56.667Z,48.41
2019-02-15T12:32:27.904Z,47.89
2019-02-15T12:34:59.060Z,47.61
2019-02-15T12:37:30.286Z,47.48
2019-02-15T12:40:01.552Z,47.44
2019-02-15T12:42:32.670Z,47.11
2019-02-15T12:45:03.926Z,47.00
2019-02-15T12:47:35.170Z,46.55
2019-02-15T12:50:08.408Z,46.31
2019-02-15T12:52:39.539Z,46.19
2019-02-15T12:55:10.765Z,45.67
2019-02-15T12:57:41.906Z,45.68
2019-02-15T13:00:13.983Z,45.46
2019-02-15T13:02:45.259Z,45.25
2019-02-15T13:05:16.436Z,44.88
2019-02-15T13:07:47.684Z,44.67
2019-02-15T13:10:22.565Z,44.49
2019-02-15T13:12:53.825Z,44.42
2019-02-15T13:15:24.986Z,44.33
2019-02-15T13:17:56.196Z,44.06
2019-02-15T13:20:27.431Z,43.70
2019-02-15T13:22:58.669Z,42.84
2019-02-15T13:25:36.580Z,42.27
2019-02-15T13:28:03.034Z,41.60
2019-02-15T13:30:34.308Z,40.92
2019-02-15T13:33:05.499Z,40.28
2019-02-15T13:35:36.671Z,39.37
2019-02-15T13:38:07.932Z,38.64
2019-02-15T13:40:39.141Z,37.99
2019-02-15T13:43:10.311Z,37.53
2019-02-15T13:45:41.514Z,37.27
2019-02-15T13:48:12.690Z,36.99
2019-02-15T13:50:43.900Z,36.97
2019-02-15T13:53:15.074Z,36.84
2019-02-15T13:55:46.306Z,36.88
2019-02-15T13:58:17.493Z,37.04
2019-02-15T14:00:48.728Z,37.00
2019-02-15T14:03:19.909Z,36.82
2019-02-15T14:05:51.190Z,36.55
2019-02-15T14:08:22.401Z,36.17
2019-02-15T14:10:53.584Z,35.69
2019-02-15T14:13:24.764Z,35.29
2019-02-15T14:15:55.956Z,34.75
2019-02-15T14:18:27.155Z,34.30
2019-02-15T14:20:58.398Z,33.90
2019-02-15T14:23:29.659Z,33.43
2019-02-15T14:26:00.839Z,33.08
2019-02-15T14:28:33.165Z,32.59
2019-02-15T14:31:04.365Z,32.03
2019-02-15T14:33:35.577Z,31.69
2019-02-15T14:36:08.274Z,31.27
2019-02-15T14:38:39.649Z,30.92
2019-02-15T14:41:10.821Z,30.56
2019-02-15T14:43:41.981Z,30.07
2019-02-15T14:46:13.178Z,29.76
2019-02-15T14:48:44.345Z,29.32
2019-02-15T14:51:15.570Z,29.12
2019-02-15T14:53:46.840Z,28.98
2019-02-15T14:56:17.976Z,29.01
2019-02-15T14:58:49.241Z,29.04
2019-02-15T15:01:20.429Z,29.12
2019-02-15T15:03:51.756Z,29.20
2019-02-15T15:06:22.924Z,29.27
2019-02-15T15:08:54.109Z,29.38
2019-02-15T15:11:25.301Z,29.50
2019-02-15T15:13:56.470Z,29.58
2019-02-15T15:16:27.642Z,29.69
2019-02-15T15:18:58.794Z,29.83
2019-02-15T15:21:29.997Z,29.94
2019-02-15T15:24:01.315Z,30.11
2019-02-15T15:26:32.469Z,30.26
2019-02-15T15:29:03.724Z,30.42
2019-02-15T15:31:35.048Z,30.58
2019-02-15T15:34:06.228Z,30.76
2019-02-15T15:36:37.472Z,31.00
2019-02-15T15:39:08.714Z,31.13
2019-02-15T15:41:39.967Z,31.25
2019-02-15T15:44:11.401Z,31.40
2019-02-15T15:46:42.550Z,31.57
2019-02-15T15:49:13.881Z,31.74
2019-02-15T15:51:45.158Z,31.86
2019-02-15T15:54:16.647Z,31.96
2019-02-15T15:56:48.921Z,32.09
2019-02-15T15:59:20.760Z,32.23
2019-02-15T16:01:52.064Z,32.36
2019-02-15T16:04:23.691Z,32.53
2019-02-15T16:06:55.181Z,32.67
2019-02-15T16:09:27.300Z,32.85
2019-02-15T16:11:58.919Z,32.96
2019-02-15T16:14:30.196Z,33.15
2019-02-15T16:17:01.526Z,33.37
2019-02-15T16:19:40.461Z,33.58
2019-02-15T16:22:06.808Z,33.78
2019-02-15T16:24:38.015Z,33.98
2019-02-15T16:27:09.305Z,34.16
2019-02-15T16:29:40.528Z,34.43
2019-02-15T16:32:11.747Z,34.63
2019-02-15T16:34:42.866Z,34.81
2019-02-15T16:37:14.181Z,35.02
2019-02-15T16:39:45.320Z,35.23
2019-02-15T16:42:16.549Z,35.40
2019-02-15T16:44:48.040Z,35.57
2019-02-15T16:47:19.417Z,35.74
2019-02-15T16:49:50.770Z,35.93
2019-02-15T16:52:21.947Z,36.13
2019-02-15T16:54:53.285Z,36.33
2019-02-15T16:57:24.462Z,36.51
2019-02-15T16:59:55.741Z,36.72
2019-02-15T17:02:27.298Z,36.92
2019-02-15T17:04:58.571Z,37.11
2019-02-15T17:07:31.070Z,37.33
2019-02-15T17:10:02.523Z,37.52
2019-02-15T17:12:33.746Z,37.72
2019-02-15T17:15:05.252Z,37.96
2019-02-15T17:17:36.617Z,38.13
2019-02-15T17:20:09.259Z,38.33
2019-02-15T17:22:40.522Z,38.52
2019-02-15T17:25:22.029Z,38.68
2019-02-15T17:27:53.257Z,38.83
2019-02-15T17:30:24.540Z,39.03
2019-02-15T17:32:56.003Z,39.17
2019-02-15T17:35:27.273Z,39.34
2019-02-15T17:37:58.646Z,39.51
2019-02-15T17:40:29.851Z,39.69
2019-02-15T17:43:01.396Z,39.87
2019-02-15T17:45:32.563Z,40.03
2019-02-15T17:48:03.735Z,40.18
2019-02-15T17:50:35.988Z,40.33
2019-02-15T17:53:07.176Z,40.48
2019-02-15T17:55:38.539Z,40.65
2019-02-15T17:58:09.859Z,40.77
2019-02-15T18:00:41.199Z,40.91
2019-02-15T18:03:12.432Z,41.01
2019-02-15T18:05:43.678Z,41.15
2019-02-15T18:08:14.902Z,41.26
2019-02-15T18:10:46.187Z,41.38
2019-02-15T18:13:17.498Z,41.50
2019-02-15T18:15:48.709Z,41.62
2019-02-15T18:18:20.032Z,41.75
2019-02-15T18:20:51.221Z,41.87
2019-02-15T18:23:22.474Z,42.00
2019-02-15T18:25:53.922Z,42.12
2019-02-15T18:28:25.208Z,42.26
2019-02-15T18:30:57.549Z,42.37
2019-02-15T18:33:28.982Z,42.53
2019-02-15T18:36:00.359Z,42.66
2019-02-15T18:38:31.663Z,42.77
2019-02-15T18:41:13.355Z,42.87
2019-02-15T18:43:38.588Z,42.98
2019-02-15T18:46:09.936Z,43.10
2019-02-15T18:48:41.260Z,43.20
2019-02-15T18:51:12.513Z,43.30
2019-02-15T18:53:45.051Z,43.43
2019-02-15T18:56:16.626Z,43.54
2019-02-15T18:58:48.124Z,43.65
2019-02-15T19:01:19.335Z,43.78
2019-02-15T19:03:50.642Z,43.90
2019-02-15T19:06:22.002Z,44.01
2019-02-15T19:08:53.287Z,44.15
2019-02-15T19:11:24.671Z,44.27
2019-02-15T19:13:55.967Z,44.36
2019-02-15T19:16:27.231Z,44.48
2019-02-15T19:18:58.485Z,44.56
2019-02-15T19:21:31.471Z,44.67
2019-02-15T19:24:02.934Z,44.77
2019-02-15T19:26:35.405Z,44.87
2019-02-15T19:29:06.666Z,45.00
2019-02-15T19:31:38.006Z,45.10
2019-02-15T19:34:10.301Z,45.20
2019-02-15T19:36:41.603Z,45.30
2019-02-15T19:39:12.840Z,45.42
2019-02-15T19:41:44.163Z,45.54
2019-02-15T19:44:15.394Z,45.66
2019-02-15T19:46:59.494Z,45.80
2019-02-15T19:49:38.490Z,45.89
2019-02-15T19:52:03.996Z,46.00
2019-02-15T19:54:35.299Z,46.09
2019-02-15T19:57:06.624Z,46.21
2019-02-15T19:59:38.893Z,46.32
2019-02-15T20:02:10.398Z,46.40
2019-02-15T20:04:41.597Z,46.51
2019-02-15T20:07:12.956Z,46.60
2019-02-15T20:09:44.306Z,46.73
2019-02-15T20:12:15.575Z,46.82
2019-02-15T20:14:46.823Z,46.91
2019-02-15T20:17:17.990Z,47.01
2019-02-15T20:19:51.028Z,47.13
2019-02-15T20:22:22.701Z,47.21
2019-02-15T20:24:54.111Z,47.30
2019-02-15T20:27:25.586Z,47.38
2019-02-15T20:29:56.807Z,47.47
2019-02-15T20:32:28.132Z,47.55
2019-02-15T20:34:59.484Z,47.64
2019-02-15T20:37:30.790Z,47.66
2019-02-15T20:40:02.131Z,47.73
2019-02-15T20:42:33.620Z,47.82
2019-02-15T20:45:05.366Z,47.87
2019-02-15T20:47:36.730Z,47.94
2019-02-15T20:50:08.748Z,48.00
2019-02-15T20:52:41.227Z,48.09
2019-02-15T20:55:13.522Z,48.15
2019-02-15T20:57:46.130Z,48.21
2019-02-15T21:00:19.689Z,48.29
2019-02-15T21:02:50.871Z,48.33
2019-02-15T21:05:22.035Z,48.41
2019-02-15T21:07:53.200Z,48.49
2019-02-15T21:10:24.558Z,48.56
2019-02-15T21:12:55.864Z,48.61
2019-02-15T21:15:27.502Z,48.69
2019-02-15T21:17:59.946Z,48.75
2019-02-15T21:20:32.078Z,48.79
2019-02-15T21:23:03.446Z,48.84
2019-02-15T21:25:34.715Z,48.90
2019-02-15T21:28:06.204Z,48.93
2019-02-15T21:30:37.495Z,48.99
2019-02-15T21:33:09.144Z,49.05
2019-02-15T21:35:40.438Z,49.12
2019-02-15T21:38:11.701Z,49.15
2019-02-15T21:40:43.062Z,49.21
2019-02-15T21:43:15.782Z,49.25
2019-02-15T21:45:48.074Z,49.28
2019-02-15T21:48:19.358Z,49.30
2019-02-15T21:50:50.664Z,49.36
2019-02-15T21:53:21.944Z,49.37
2019-02-15T21:55:53.568Z,49.42
2019-02-15T21:58:25.063Z,49.47
2019-02-15T22:00:56.534Z,49.49
2019-02-15T22:03:27.999Z,49.57
2019-02-15T22:05:59.371Z,49.64
2019-02-15T22:08:30.620Z,49.72
2019-02-15T22:11:01.863Z,49.78
2019-02-15T22:13:34.880Z,49.88
2019-02-15T22:16:06.302Z,49.94
2019-02-15T22:18:37.638Z,50.01
2019-02-15T22:21:08.876Z,50.08
2019-02-15T22:23:40.027Z,50.12
2019-02-15T22:26:11.271Z,50.18
2019-02-15T22:28:42.457Z,50.20
2019-02-15T22:31:13.655Z,50.25
2019-02-15T22:33:44.882Z,50.27
2019-02-15T22:36:16.040Z,50.30
2019-02-15T22:38:47.283Z,50.34
2019-02-15T22:41:18.793Z,50.38
2019-02-15T22:43:50.004Z,50.39
2019-02-15T22:46:21.237Z,50.44
2019-02-15T22:48:52.483Z,50.49
2019-02-15T22:51:23.708Z,50.55
2019-02-15T22:53:54.930Z,50.57
2019-02-15T22:56:26.254Z,50.61
2019-02-15T22:58:57.485Z,50.64
2019-02-15T23:01:28.941Z,50.68
2019-02-15T23:04:00.108Z,50.71
2019-02-15T23:06:31.611Z,50.74
2019-02-15T23:09:04.470Z,50.78
2019-02-15T23:11:36.883Z,50.81
2019-02-15T23:14:08.007Z,50.83
2019-02-15T23:16:39.222Z,50.86
2019-02-15T23:19:10.514Z,50.89
2019-02-15T23:21:41.724Z,50.92
2019-02-15T23:24:12.950Z,50.95
2019-02-15T23:26:44.360Z,51.00
2019-02-15T23:29:15.584Z,51.02
2019-02-15T23:31:47.054Z,51.05
2019-02-15T23:34:18.269Z,51.04
2019-02-15T23:36:49.503Z,51.10
2019-02-15T23:39:20.680Z,51.12
2019-02-15T23:41:51.880Z,51.17
2019-02-15T23:44:23.006Z,51.18
2019-02-15T23:46:54.279Z,51.20
2019-02-15T23:49:25.440Z,51.24
2019-02-15T23:51:56.620Z,51.26
2019-02-15T23:54:27.817Z,51.28
2019-02-15T23:56:59.127Z,51.30
2019-02-15T23:59:30.478Z,51.32
